Time;durP1;ratioP1;P1;durP2;ratioP2;P2;SDS_P1;SDS_P2;PMS_P1;PMS_P2;Temp;Humidity;BMP_temperature;BMP_pressure;BME280_temperature;BME280_humidity;BME280_pressure;Samples;Min_cycle;Max_cycle;Signal;HPM_P1;HPM_P2
2023/04/10 00:01:24;;;;;;;22.27;15.18;;;2.70;1.00;;;;;;6154633;23;20053;-87
2023/04/10 00:04:11;;;;;;;22.92;15.38;;;2.60;1.00;;;;;;6155211;23;20026;-88
2023/04/10 00:06:59;;;;;;;26.27;16.85;;;2.50;1.00;;;;;;6155481;23;20120;-88
2023/04/10 00:09:48;;;;;;;29.23;16.75;;;2.40;8.10;;;;;;6151648;23;20108;-88
2023/04/10 00:12:38;;;;;;;28.05;16.13;;;2.40;73.20;;;;;;6154191;23;20025;-88
2023/04/10 00:15:25;;;;;;;25.20;15.05;;;2.40;99.90;;;;;;6152585;23;20033;-87
2023/04/10 00:18:12;;;;;;;26.52;16.20;;;2.40;99.90;;;;;;6154062;23;20337;-88
2023/04/10 00:21:02;;;;;;;26.90;17.00;;;2.40;99.90;;;;;;6154536;23;20061;-89
2023/04/10 00:23:50;;;;;;;26.70;16.42;;;2.30;99.90;;;;;;6156081;23;20044;-88
2023/04/10 00:26:42;;;;;;;26.40;15.77;;;2.20;99.90;;;;;;6156153;23;20108;-88
2023/04/10 00:29:29;;;;;;;27.77;16.85;;;2.20;99.90;;;;;;6157360;23;20040;-86
2023/04/10 00:32:16;;;;;;;24.23;15.55;;;2.10;99.90;;;;;;6175046;23;20125;-87
2023/04/10 00:35:04;;;;;;;27.20;16.63;;;2.00;99.90;;;;;;6177233;23;20421;-87
2023/04/10 00:37:55;;;;;;;29.00;17.63;;;2.00;99.90;;;;;;6158141;23;20022;-86
2023/04/10 00:40:45;;;;;;;28.42;16.80;;;2.00;99.90;;;;;;6156188;23;20029;-87
2023/04/10 00:43:32;;;;;;;28.67;18.20;;;2.00;99.90;;;;;;6158114;23;20036;-86
2023/04/10 00:46:20;;;;;;;29.85;18.17;;;2.00;99.90;;;;;;6157952;23;20092;-87
2023/04/10 00:49:10;;;;;;;30.42;18.52;;;2.00;99.90;;;;;;6158535;23;20396;-87
2023/04/10 00:51:57;;;;;;;29.98;18.30;;;1.90;99.90;;;;;;6158901;23;20098;-88
2023/04/10 00:54:45;;;;;;;30.45;18.05;;;1.90;1.00;;;;;;6158345;23;20100;-87
2023/04/10 00:57:35;;;;;;;30.27;18.60;;;1.90;1.00;;;;;;6158758;23;20109;-87
2023/04/10 01:00:22;;;;;;;31.02;19.65;;;1.90;1.00;;;;;;6157395;23;20077;-87
2023/04/10 01:03:11;;;;;;;27.00;18.17;;;1.90;1.00;;;;;;6159980;23;20032;-87
2023/04/10 01:06:10;;;;;;;30.08;17.33;;;1.90;1.00;;;;;;6156811;23;20455;-88
2023/04/10 01:09:02;;;;;;;28.63;17.77;;;1.90;1.00;;;;;;6158017;23;20107;-87
2023/04/10 01:12:14;;;;;;;28.23;18.05;;;1.90;1.00;;;;;;6159894;23;20038;-87
2023/04/10 01:15:10;;;;;;;31.13;18.02;;;1.80;1.00;;;;;;6159798;23;20025;-86
2023/04/10 01:18:15;;;;;;;28.65;17.20;;;1.70;1.00;;;;;;6161052;23;20442;-86
2023/04/10 01:21:10;;;;;;;29.50;18.13;;;1.60;1.00;;;;;;6159720;23;20022;-87
2023/04/10 01:24:32;;;;;;;29.90;18.23;;;1.60;99.90;;;;;;6159065;23;20081;-88
2023/04/10 01:27:25;;;;;;;32.00;18.40;;;1.60;99.90;;;;;;6124168;23;20049;-85
2023/04/10 01:30:20;;;;;;;31.60;18.48;;;1.50;99.90;;;;;;6159186;23;20159;-88
2023/04/10 01:33:11;;;;;;;28.42;17.85;;;1.40;99.90;;;;;;6156399;23;20030;-87
2023/04/10 01:36:03;;;;;;;31.10;18.35;;;1.40;99.90;;;;;;6159476;23;20033;-88
2023/04/10 01:38:53;;;;;;;33.05;19.45;;;1.40;99.90;;;;;;6159064;23;20057;-87
2023/04/10 01:41:42;;;;;;;32.78;19.08;;;1.30;99.90;;;;;;6156595;23;20022;-88
2023/04/10 01:44:33;;;;;;;35.03;19.88;;;1.30;1.00;;;;;;6177245;23;20314;-87
2023/04/10 01:47:25;;;;;;;32.65;20.00;;;1.30;1.00;;;;;;6156960;23;20429;-88
2023/04/10 01:50:15;;;;;;;30.10;19.33;;;1.20;1.00;;;;;;6158617;23;20033;-88
2023/04/10 01:53:05;;;;;;;32.13;19.58;;;1.20;1.00;;;;;;6158124;23;20449;-89
2023/04/10 01:55:53;;;;;;;34.92;19.33;;;1.20;99.90;;;;;;6157590;23;20105;-89
2023/04/10 01:58:40;;;;;;;34.85;20.17;;;1.30;99.90;;;;;;6159053;23;20045;-87
2023/04/10 02:01:30;;;;;;;33.30;19.08;;;1.20;99.90;;;;;;6156984;23;20048;-89
2023/04/10 02:04:22;;;;;;;31.05;18.80;;;1.20;99.90;;;;;;6158088;23;20344;-89
2023/04/10 02:07:21;;;;;;;35.40;20.17;;;1.10;99.90;;;;;;6156826;23;20568;-88
2023/04/10 02:10:12;;;;;;;35.30;20.33;;;1.00;1.00;;;;;;6155373;23;20033;-89
2023/04/10 02:13:05;;;;;;;34.65;20.00;;;1.00;44.60;;;;;;6158037;23;20072;-88
2023/04/10 02:15:56;;;;;;;34.60;20.27;;;0.90;99.90;;;;;;6157758;23;20478;-90
2023/04/10 02:18:45;;;;;;;33.97;20.80;;;0.90;1.00;;;;;;6156910;23;20110;-90
2023/04/10 02:21:33;;;;;;;36.08;20.10;;;0.80;99.90;;;;;;6156779;23;20033;-89
2023/04/10 02:24:21;;;;;;;33.90;20.73;;;0.80;99.90;;;;;;6154028;23;20026;-89
2023/04/10 02:27:11;;;;;;;33.20;20.30;;;0.80;99.90;;;;;;6156002;23;20092;-90
2023/04/10 02:29:59;;;;;;;34.75;20.23;;;0.80;99.90;;;;;;6157709;23;20074;-89
2023/04/10 02:32:46;;;;;;;31.33;19.40;;;0.80;1.00;;;;;;6158577;23;20025;-89
2023/04/10 02:35:35;;;;;;;35.40;20.52;;;0.80;1.00;;;;;;6174243;23;20313;-89
2023/04/10 02:38:25;;;;;;;37.55;21.00;;;0.90;99.90;;;;;;6157880;23;20395;-88
2023/04/10 02:41:14;;;;;;;36.45;19.73;;;1.00;1.00;;;;;;6157522;23;20289;-88
2023/04/10 02:44:05;;;;;;;34.85;19.77;;;1.00;99.90;;;;;;6157124;23;20029;-87
2023/04/10 02:46:52;;;;;;;29.50;18.52;;;0.90;70.90;;;;;;6157196;23;20078;-88
2023/04/10 02:49:39;;;;;;;32.55;18.63;;;0.80;60.90;;;;;;6157173;23;20314;-87
2023/04/10 02:52:27;;;;;;;32.20;18.60;;;0.70;56.30;;;;;;6161127;23;20052;-88
2023/04/10 02:55:14;;;;;;;37.75;20.05;;;0.70;99.90;;;;;;6163871;23;20126;-87
2023/04/10 02:58:02;;;;;;;35.30;19.25;;;0.60;99.90;;;;;;6161290;23;20026;-88
2023/04/10 03:00:50;;;;;;;35.40;19.15;;;0.60;1.00;;;;;;6158334;23;20101;-88
2023/04/10 03:03:37;;;;;;;32.47;18.70;;;0.70;99.90;;;;;;6159088;23;20115;-87
2023/04/10 03:06:27;;;;;;;36.72;19.27;;;0.80;99.90;;;;;;6158033;23;20030;-89
2023/04/10 03:09:15;;;;;;;31.20;18.95;;;0.90;1.00;;;;;;6157033;23;20025;-88
2023/04/10 03:12:04;;;;;;;31.92;18.65;;;1.00;99.90;;;;;;6176088;23;20029;-89
2023/04/10 03:14:51;;;;;;;35.67;19.50;;;0.80;99.90;;;;;;6158786;23;20056;-88
2023/04/10 03:17:39;;;;;;;31.23;18.35;;;0.80;99.90;;;;;;6158697;23;20029;-84
2023/04/10 03:20:26;;;;;;;34.80;19.52;;;0.80;99.90;;;;;;6156040;23;20022;-88
2023/04/10 03:23:13;;;;;;;31.50;18.52;;;0.90;99.90;;;;;;6158219;23;20121;-88
2023/04/10 03:26:01;;;;;;;31.42;17.90;;;0.90;99.90;;;;;;6136766;23;20064;-88
2023/04/10 03:28:48;;;;;;;32.17;19.02;;;0.80;99.90;;;;;;6156038;23;20029;-87
2023/04/10 03:31:38;;;;;;;30.52;16.88;;;0.80;99.90;;;;;;6156733;23;20044;-88
2023/04/10 03:34:25;;;;;;;34.63;18.95;;;0.80;99.90;;;;;;6158390;23;20068;-87
2023/04/10 03:37:13;;;;;;;34.55;19.20;;;0.80;99.90;;;;;;6163419;23;20025;-89
2023/04/10 03:40:05;;;;;;;37.35;19.95;;;0.80;1.00;;;;;;6171234;23;20053;-89
2023/04/10 03:42:54;;;;;;;38.13;19.67;;;0.80;1.00;;;;;;6170557;23;20047;-87
2023/04/10 03:45:41;;;;;;;31.55;18.17;;;0.80;1.00;;;;;;6182977;23;20023;-83
2023/04/10 03:48:29;;;;;;;30.23;18.38;;;0.90;99.90;;;;;;6182896;23;20013;-89
2023/04/10 03:51:17;;;;;;;30.75;17.70;;;0.90;99.90;;;;;;6199374;23;20036;-89
2023/04/10 03:54:04;;;;;;;31.27;17.05;;;0.80;99.90;;;;;;6181170;23;20029;-89
2023/04/10 03:56:53;;;;;;;31.60;19.05;;;0.60;99.90;;;;;;6163280;23;20028;-88
2023/04/10 03:59:42;;;;;;;34.10;18.20;;;0.60;1.00;;;;;;6164518;23;20025;-88
2023/04/10 04:02:49;;;;;;;32.83;18.60;;;0.50;25.50;;;;;;6165406;23;20033;-88
2023/04/10 04:05:37;;;;;;;29.33;17.13;;;0.50;99.90;;;;;;6157461;23;20025;-89
2023/04/10 04:08:24;;;;;;;35.95;19.98;;;0.50;1.00;;;;;;6160146;23;20105;-88
2023/04/10 04:11:11;;;;;;;32.53;18.77;;;0.60;1.00;;;;;;6159472;23;20074;-88
2023/04/10 04:14:02;;;;;;;31.38;18.98;;;0.60;77.60;;;;;;6158061;23;20026;-88
2023/04/10 04:16:51;;;;;;;32.97;18.90;;;0.60;1.00;;;;;;6177272;23;20029;-89
2023/04/10 04:19:39;;;;;;;33.30;19.73;;;0.60;1.00;;;;;;6157920;23;20021;-90
2023/04/10 04:22:29;;;;;;;37.35;20.00;;;0.60;1.00;;;;;;6156600;23;20045;-89
2023/04/10 04:25:18;;;;;;;34.80;19.33;;;0.70;53.30;;;;;;6159374;23;20425;-89
2023/04/10 04:28:05;;;;;;;37.22;20.77;;;0.80;99.90;;;;;;6161330;23;20030;-89
2023/04/10 04:30:55;;;;;;;39.75;21.30;;;0.80;99.90;;;;;;6160481;23;20441;-88
2023/04/10 04:33:42;;;;;;;36.67;21.65;;;1.00;1.00;;;;;;6163531;23;20040;-89
2023/04/10 04:36:32;;;;;;;38.50;21.98;;;1.00;1.00;;;;;;6156090;23;20483;-88
2023/04/10 04:39:20;;;;;;;35.50;21.40;;;1.00;99.90;;;;;;6159761;23;20025;-88
2023/04/10 04:42:07;;;;;;;38.88;21.40;;;1.10;99.90;;;;;;6179312;23;20032;-88
2023/04/10 04:44:57;;;;;;;35.85;20.13;;;1.10;99.90;;;;;;6160719;23;20388;-89
2023/04/10 04:47:44;;;;;;;35.33;20.10;;;1.10;69.10;;;;;;6158511;23;20044;-88
2023/04/10 04:50:33;;;;;;;34.47;20.42;;;1.10;1.00;;;;;;6159493;23;20061;-87
2023/04/10 04:53:21;;;;;;;34.53;20.35;;;1.10;1.00;;;;;;6178260;23;20033;-90
2023/04/10 04:56:10;;;;;;;30.75;18.77;;;1.00;1.00;;;;;;6159721;23;20029;-89
2023/04/10 04:58:57;;;;;;;32.42;18.88;;;0.90;1.00;;;;;;6160703;23;20080;-87
2023/04/10 05:01:44;;;;;;;34.30;19.13;;;0.80;1.00;;;;;;6156859;23;20481;-88
2023/04/10 05:04:31;;;;;;;32.10;18.83;;;0.70;1.00;;;;;;6159467;23;20025;-86
2023/04/10 05:07:19;;;;;;;31.83;19.70;;;0.70;21.10;;;;;;6163103;23;20034;-87
2023/04/10 05:10:08;;;;;;;32.67;19.58;;;0.70;99.90;;;;;;6166688;23;20382;-87
2023/04/10 05:12:55;;;;;;;33.95;19.73;;;0.80;1.00;;;;;;6184955;23;20048;-90
2023/04/10 05:15:47;;;;;;;34.70;20.08;;;0.80;99.90;;;;;;6158987;23;20045;-88
2023/04/10 05:18:35;;;;;;;37.08;20.90;;;0.90;99.90;;;;;;6158005;23;20026;-90
2023/04/10 05:21:22;;;;;;;34.42;20.25;;;0.90;50.20;;;;;;6155721;23;20033;-87
2023/04/10 05:24:10;;;;;;;35.85;20.25;;;1.00;99.90;;;;;;6158684;23;20025;-88
2023/04/10 05:26:57;;;;;;;35.75;20.77;;;1.00;99.90;;;;;;6158355;23;20037;-88
2023/04/10 05:29:44;;;;;;;35.78;20.80;;;1.20;99.90;;;;;;6157213;23;20029;-88
2023/04/10 05:32:31;;;;;;;38.50;21.40;;;1.20;99.90;;;;;;6159657;23;20029;-86
2023/04/10 05:35:18;;;;;;;37.30;21.25;;;1.30;99.90;;;;;;6177329;23;20112;-90
2023/04/10 05:38:08;;;;;;;37.28;20.95;;;1.40;1.00;;;;;;6158429;23;20065;-89
2023/04/10 05:40:55;;;;;;;31.85;19.92;;;1.60;99.90;;;;;;6157114;23;20036;-89
2023/04/10 05:43:43;;;;;;;33.85;19.60;;;1.80;99.90;;;;;;6159251;23;20026;-90
2023/04/10 05:46:30;;;;;;;30.25;18.08;;;1.90;99.90;;;;;;6163388;23;20025;-89
2023/04/10 05:49:19;;;;;;;30.83;19.00;;;2.00;99.90;;;;;;6159400;23;20033;-91
2023/04/10 05:52:06;;;;;;;31.45;19.30;;;2.10;43.60;;;;;;6157683;23;20044;-87
2023/04/10 05:54:54;;;;;;;31.05;18.85;;;2.20;99.90;;;;;;6159452;23;20036;-88
2023/04/10 05:57:41;;;;;;;30.20;18.83;;;2.40;99.90;;;;;;6160046;23;20028;-94
2023/04/10 06:00:29;;;;;;;31.75;18.70;;;2.60;37.60;;;;;;6161215;23;20410;-91
2023/04/10 06:03:16;;;;;;;26.73;16.77;;;2.80;1.00;;;;;;6157121;23;20025;-91
2023/04/10 06:06:07;;;;;;;22.90;14.73;;;3.00;99.90;;;;;;6177965;23;20025;-92
2023/04/10 06:08:59;;;;;;;20.55;14.00;;;3.20;1.00;;;;;;6160517;23;20041;-92
2023/04/10 06:11:47;;;;;;;20.17;13.52;;;3.50;99.40;;;;;;6164349;23;20345;-91
2023/04/10 06:14:37;;;;;;;18.60;13.00;;;3.70;1.00;;;;;;6163879;23;20040;-93
2023/04/10 06:17:27;;;;;;;17.38;12.00;;;3.90;99.90;;;;;;6183286;23;20032;-92
2023/04/10 06:20:16;;;;;;;18.48;12.10;;;4.10;99.90;;;;;;6157882;23;20052;-88
2023/04/10 06:23:16;;;;;;;;;;;;;;;;;;;;;
2023/04/10 06:26:05;;;;;;;17.30;11.93;;;4.40;1.00;;;;;;6160532;23;20279;-90
2023/04/10 06:28:56;;;;;;;18.65;12.48;;;4.50;1.00;;;;;;6159093;23;20107;-92
2023/04/10 06:31:43;;;;;;;17.75;12.18;;;4.60;99.90;;;;;;6157442;23;20402;-89
2023/04/10 06:34:35;;;;;;;18.42;11.50;;;4.70;99.90;;;;;;6156530;23;20030;-92
2023/04/10 06:37:30;;;;;;;17.95;10.93;;;4.90;99.90;;;;;;6158758;23;20021;-89
2023/04/10 06:40:17;;;;;;;15.35;11.35;;;5.00;99.90;;;;;;6157909;23;20026;-91
2023/04/10 07:12:11;;;;;;;11.23;8.25;;;8.00;99.90;;;;;;6130447;23;20025;-93
2023/04/10 07:19:55;;;;;;;;;;;;;;;;;;;;;
2023/04/10 07:27:38;;;;;;;;;;;;;;;;;;;;;
2023/04/10 07:48:43;;;;;;;7.63;5.50;;;11.00;99.90;;;;;;6071441;23;20080;-93
2023/04/10 08:00:35;;;;;;;7.53;6.13;;;12.40;99.90;;;;;;6065848;23;20030;-92
2023/04/10 08:16:39;;;;;;;6.22;4.85;;;14.50;67.70;;;;;;6045142;23;20094;-92
2023/04/10 08:28:45;;;;;;;;;;;;;;;;;;;;;
2023/04/10 08:31:48;;;;;;;5.00;4.38;;;15.70;27.80;;;;;;5962921;24;20481;-91
2023/04/10 08:35:20;;;;;;;6.85;5.20;;;15.30;17.50;;;;;;5956093;24;20092;-93
2023/04/10 08:42:24;;;;;;;4.82;4.18;;;15.40;15.30;;;;;;5962613;24;20020;-93
2023/04/10 08:46:27;;;;;;;;;;;;;;;;;;;;;
2023/04/10 09:23:44;;;;;;;3.40;3.10;;;18.80;1.00;;;;;;5861027;24;20081;-92
2023/04/10 09:35:28;;;;;;;;;;;;;;;;;;;;;
2023/04/10 09:51:44;;;;;;;;;;;;;;;;;;;;;
2023/04/10 10:04:19;;;;;;;;;;;;;;;;;;;;;
2023/04/10 10:07:36;;;;;;;2.08;1.88;;;21.50;1.00;;;;;;6063695;23;20082;-91
2023/04/10 10:10:48;;;;;;;1.80;1.70;;;20.40;1.00;;;;;;6079726;23;20049;-91
2023/04/10 10:18:51;;;;;;;1.70;1.60;;;20.80;1.00;;;;;;5964484;24;20017;-90
2023/04/10 10:27:04;;;;;;;1.65;1.20;;;21.40;1.00;;;;;;5853362;24;20331;-91
2023/04/10 10:29:57;;;;;;;2.00;1.70;;;21.20;1.00;;;;;;5899979;24;20024;-91
2023/04/10 10:33:15;;;;;;;1.85;1.70;;;20.30;1.00;;;;;;6079089;23;20031;-94
2023/04/10 10:53:02;;;;;;;1.25;1.15;;;21.70;1.00;;;;;;6240346;23;20075;-90
2023/04/10 10:56:27;;;;;;;1.42;1.33;;;21.10;1.00;;;;;;6239138;23;20012;-92
2023/04/10 11:00:03;;;;;;;1.20;1.10;;;21.20;1.00;;;;;;6116271;23;20030;-92
2023/04/10 11:07:58;;;;;;;1.63;1.33;;;20.80;1.00;;;;;;6113548;23;20022;-90
2023/04/10 11:15:50;;;;;;;1.05;1.00;;;22.40;1.00;;;;;;5888534;24;20078;-92
2023/04/10 11:19:24;;;;;;;1.27;1.13;;;22.00;1.00;;;;;;5881237;24;20063;-91
2023/04/10 11:22:27;;;;;;;1.02;1.00;;;22.90;1.00;;;;;;5894214;24;20028;-89
2023/04/10 11:29:16;;;;;;;1.42;1.33;;;23.00;1.00;;;;;;5905716;24;20051;-93
2023/04/10 11:36:47;;;;;;;1.00;0.90;;;23.00;1.00;;;;;;6072654;23;20134;-94
2023/04/10 11:40:03;;;;;;;0.93;0.93;;;21.80;1.00;;;;;;6080609;23;20019;-92
2023/04/10 11:43:51;;;;;;;1.95;0.80;;;22.30;1.00;;;;;;6133203;23;20057;-93
2023/04/10 11:46:53;;;;;;;1.02;0.93;;;23.00;1.00;;;;;;6092481;23;20353;-90
2023/04/10 11:50:35;;;;;;;;;;;;;;;;;;;;;
2023/04/10 11:57:18;;;;;;;0.80;0.80;;;23.60;1.00;;;;;;6051162;23;20607;-90
2023/04/10 12:00:34;;;;;;;0.93;0.93;;;23.50;1.00;;;;;;6113080;23;20032;-94
2023/04/10 12:04:01;;;;;;;0.70;0.70;;;22.50;1.00;;;;;;6141157;23;20080;-92
2023/04/10 12:10:52;;;;;;;1.00;0.87;;;23.80;1.00;;;;;;6122180;23;20018;-91
2023/04/10 12:22:01;;;;;;;1.10;0.77;;;22.80;1.00;;;;;;6041411;23;20148;-88
2023/04/10 12:26:03;;;;;;;0.82;0.55;;;23.90;1.00;;;;;;5947942;24;20017;-91
2023/04/10 12:29:16;;;;;;;0.50;0.50;;;24.90;1.00;;;;;;5899821;24;20065;-92
2023/04/10 12:32:18;;;;;;;0.57;0.57;;;25.60;1.00;;;;;;5835077;24;20174;-91
2023/04/10 12:35:41;;;;;;;0.88;0.82;;;22.90;1.00;;;;;;5867021;24;20041;-93
2023/04/10 12:38:47;;;;;;;0.88;0.70;;;22.30;1.00;;;;;;5932711;24;20040;-93
2023/04/10 12:41:48;;;;;;;0.60;0.60;;;21.30;1.00;;;;;;6014841;23;20042;-94
2023/04/10 12:45:22;;;;;;;0.77;0.77;;;21.00;1.00;;;;;;6144402;23;20041;-91
2023/04/10 12:48:20;;;;;;;;;;;;;;;;;;;;;
2023/04/10 12:52:14;;;;;;;2.80;0.88;;;20.30;1.00;;;;;;5991620;24;20478;-93
2023/04/10 12:55:23;;;;;;;0.73;0.70;;;19.60;1.00;;;;;;5991484;23;20027;-92
2023/04/10 13:02:26;;;;;;;0.70;0.70;;;20.10;1.00;;;;;;6013528;23;20027;-91
2023/04/10 13:05:49;;;;;;;;;;;;;;;;;;;;;
2023/04/10 13:08:51;;;;;;;0.77;0.77;;;19.70;1.00;;;;;;6167911;23;20021;-91
2023/04/10 13:19:11;;;;;;;1.52;0.90;;;20.90;1.00;;;;;;6230058;23;20020;-91
2023/04/10 13:26:38;;;;;;;0.90;0.70;;;22.60;1.00;;;;;;6055944;23;20078;-90
2023/04/10 13:29:32;;;;;;;0.98;0.88;;;21.70;1.00;;;;;;6071766;23;20026;-90
2023/04/10 13:32:20;;;;;;;1.30;1.00;;;21.80;1.00;;;;;;6068990;23;20023;-90
2023/04/10 13:35:10;;;;;;;0.90;0.82;;;22.60;1.00;;;;;;6070663;23;20027;-87
2023/04/10 13:38:00;;;;;;;1.02;0.95;;;23.30;1.00;;;;;;6074358;23;20034;-89
2023/04/10 13:40:47;;;;;;;0.80;0.80;;;22.90;1.00;;;;;;6053548;23;20030;-92
2023/04/10 13:43:38;;;;;;;1.02;0.60;;;21.70;1.00;;;;;;6050964;23;20114;-85
2023/04/10 13:46:28;;;;;;;0.90;0.68;;;20.90;1.00;;;;;;6069193;23;20038;-92
2023/04/10 13:49:16;;;;;;;0.95;0.93;;;20.10;1.00;;;;;;6048471;23;20027;-83
2023/04/10 13:52:04;;;;;;;1.02;0.73;;;19.70;1.00;;;;;;6073451;23;20041;-89
2023/04/10 13:54:56;;;;;;;0.60;0.60;;;19.70;1.00;;;;;;6058981;23;20030;-92
2023/04/10 13:57:51;;;;;;;0.70;0.70;;;19.20;1.00;;;;;;6071202;23;20034;-92
2023/04/10 14:00:44;;;;;;;2.45;1.23;;;18.90;1.00;;;;;;6200475;23;20051;-91
2023/04/10 14:03:32;;;;;;;1.90;1.10;;;19.00;1.00;;;;;;6199379;23;20020;-90
2023/04/10 14:06:21;;;;;;;0.93;0.80;;;19.00;1.00;;;;;;6198162;23;20028;-90
2023/04/10 14:09:11;;;;;;;0.70;0.70;;;18.80;1.00;;;;;;6227216;23;20032;-91
2023/04/10 14:12:11;;;;;;;1.48;0.93;;;18.90;1.00;;;;;;6222237;23;20032;-93
2023/04/10 14:15:03;;;;;;;2.58;0.77;;;19.10;1.00;;;;;;6205058;23;20028;-88
2023/04/10 14:17:53;;;;;;;2.45;0.90;;;18.80;1.00;;;;;;6212524;23;20020;-88
2023/04/10 14:21:10;;;;;;;1.05;0.88;;;18.80;1.00;;;;;;6194781;23;20016;-94
2023/04/10 14:24:01;;;;;;;1.40;0.90;;;19.10;1.00;;;;;;6197815;23;20047;-92
2023/04/10 14:27:00;;;;;;;0.60;0.60;;;19.70;1.00;;;;;;6216997;23;20019;-92
2023/04/10 14:38:43;;;;;;;0.80;0.80;;;19.20;1.00;;;;;;6240006;23;20054;-89
2023/04/10 14:45:39;;;;;;;1.35;0.90;;;20.10;1.00;;;;;;6141505;23;20026;-94
2023/04/10 14:49:50;;;;;;;1.52;1.25;;;20.30;1.00;;;;;;6081768;23;20150;-92
2023/04/10 14:57:25;;;;;;;1.23;0.98;;;19.60;1.00;;;;;;5941630;24;20025;-93
2023/04/10 15:04:44;;;;;;;1.25;1.15;;;19.50;1.00;;;;;;5855679;24;20026;-90
2023/04/10 15:07:48;;;;;;;1.13;1.08;;;19.30;1.00;;;;;;5916093;23;20020;-92
2023/04/10 15:10:57;;;;;;;0.80;0.80;;;19.00;1.00;;;;;;6016766;23;20095;-94
2023/04/10 15:14:04;;;;;;;1.15;1.05;;;18.70;1.00;;;;;;6092715;23;20026;-90
2023/04/10 15:21:22;;;;;;;1.10;1.00;;;18.70;1.00;;;;;;6110318;23;20437;-90
2023/04/10 15:24:10;;;;;;;1.38;1.23;;;18.70;1.00;;;;;;6119754;23;20093;-87
2023/04/10 15:27:29;;;;;;;1.30;1.20;;;18.40;1.00;;;;;;6238428;23;20012;-91
2023/04/10 15:30:39;;;;;;;;;;;;;;;;;;;;;
2023/04/10 15:33:51;;;;;;;1.80;1.00;;;18.30;1.00;;;;;;6206403;23;20020;-91
2023/04/10 15:36:49;;;;;;;1.00;0.90;;;18.10;1.00;;;;;;6223969;23;20028;-91
2023/04/10 15:40:16;;;;;;;1.30;1.20;;;17.90;1.00;;;;;;6203819;23;20038;-93
2023/04/10 15:43:26;;;;;;;0.90;0.90;;;17.90;1.00;;;;;;6110417;23;20020;-94
2023/04/10 15:46:18;;;;;;;1.20;1.08;;;18.00;1.00;;;;;;6205346;23;20036;-90
2023/04/10 15:49:22;;;;;;;1.25;1.08;;;17.60;1.00;;;;;;6132182;23;20021;-91
2023/04/10 15:52:37;;;;;;;1.48;1.20;;;17.50;1.00;;;;;;6147248;23;20032;-89
2023/04/10 15:55:30;;;;;;;1.10;1.00;;;17.20;1.00;;;;;;6204771;23;20465;-90
2023/04/10 16:02:08;;;;;;;1.00;0.93;;;16.90;1.00;;;;;;6237740;23;20396;-92
2023/04/10 16:05:09;;;;;;;1.00;0.82;;;16.80;1.00;;;;;;6215253;23;20017;-92
2023/04/10 16:08:01;;;;;;;1.52;1.00;;;16.70;1.00;;;;;;6240344;23;20025;-88
2023/04/10 16:10:49;;;;;;;1.10;1.00;;;16.70;1.00;;;;;;6240433;23;20028;-91
2023/04/10 16:13:40;;;;;;;0.70;0.70;;;16.70;1.00;;;;;;6239236;23;20021;-93
2023/04/10 16:16:31;;;;;;;2.17;1.38;;;16.70;1.00;;;;;;6234217;23;20021;-90
2023/04/10 16:19:23;;;;;;;1.60;0.80;;;16.60;1.00;;;;;;6208248;23;20070;-89
2023/04/10 16:22:10;;;;;;;1.27;1.00;;;16.60;1.00;;;;;;6231006;23;20021;-92
2023/04/10 16:24:58;;;;;;;0.90;0.90;;;16.60;1.00;;;;;;6201103;23;20615;-91
2023/04/10 16:27:47;;;;;;;1.05;1.00;;;16.40;1.00;;;;;;6201380;23;20028;-93
2023/04/10 16:30:38;;;;;;;1.20;0.90;;;16.40;1.00;;;;;;6203683;23;20025;-93
2023/04/10 16:33:29;;;;;;;1.88;1.13;;;16.30;1.00;;;;;;6228388;23;20039;-92
2023/04/10 16:36:17;;;;;;;2.30;1.55;;;16.30;1.00;;;;;;6204199;23;20044;-92
2023/04/10 16:39:06;;;;;;;3.15;1.00;;;16.20;1.00;;;;;;6224527;23;20032;-92
2023/04/10 16:42:14;;;;;;;2.08;1.13;;;16.10;1.00;;;;;;6182780;23;20052;-92
2023/04/10 16:45:07;;;;;;;2.45;1.50;;;16.10;1.00;;;;;;6227345;23;20055;-91
2023/04/10 16:47:59;;;;;;;2.33;1.35;;;16.00;1.00;;;;;;6229600;23;20020;-91
2023/04/10 16:51:44;;;;;;;1.92;1.52;;;15.90;1.00;;;;;;6148918;23;20030;-92
2023/04/10 16:54:42;;;;;;;8.65;4.05;;;16.00;1.00;;;;;;6144592;23;20136;-90
2023/04/10 16:57:52;;;;;;;6.95;3.88;;;15.90;1.00;;;;;;6164499;23;20133;-89
2023/04/10 17:01:38;;;;;;;2.42;1.88;;;15.80;1.00;;;;;;6141781;23;20028;-91
2023/04/10 17:05:01;;;;;;;1.73;1.52;;;15.70;1.00;;;;;;6110868;23;20029;-91
2023/04/10 17:07:51;;;;;;;3.10;1.08;;;15.60;1.00;;;;;;6147699;23;20029;-92
2023/04/10 17:12:04;;;;;;;;;;;;;;;;;;;;;
2023/04/10 17:16:02;;;;;;;1.20;1.00;;;15.50;1.00;;;;;;6073365;23;20018;-91
2023/04/10 17:18:55;;;;;;;1.05;0.93;;;15.40;1.00;;;;;;6110053;23;20026;-91
2023/04/10 17:21:48;;;;;;;1.08;0.98;;;15.40;1.00;;;;;;6140634;23;20061;-90
2023/04/10 17:24:45;;;;;;;1.92;1.20;;;15.30;1.00;;;;;;6178602;23;20093;-90
2023/04/10 17:27:37;;;;;;;2.75;1.30;;;15.30;1.00;;;;;;6178968;23;20014;-85
2023/04/10 17:30:32;;;;;;;1.23;1.10;;;15.20;1.00;;;;;;6157056;23;20061;-91
2023/04/10 17:34:00;;;;;;;;;;;;;;;;;;;;;
2023/04/10 17:37:08;;;;;;;2.45;1.50;;;15.10;1.00;;;;;;6222957;23;20036;-93
2023/04/10 17:40:35;;;;;;;;;;;;;;;;;;;;;
2023/04/10 17:44:10;;;;;;;1.95;1.70;;;15.00;1.00;;;;;;6221514;23;20074;-92
2023/04/10 17:47:00;;;;;;;3.20;1.63;;;14.90;1.00;;;;;;6220702;23;20044;-91
2023/04/10 17:49:54;;;;;;;1.92;1.40;;;14.90;1.00;;;;;;6225056;23;20025;-91
2023/04/10 17:53:13;;;;;;;1.67;1.42;;;14.90;1.00;;;;;;6229100;23;20024;-92
2023/04/10 18:00:26;;;;;;;1.42;1.20;;;14.80;1.00;;;;;;6223530;23;20039;-90
2023/04/10 18:03:34;;;;;;;2.13;1.55;;;14.80;1.00;;;;;;6204982;23;20239;-91
2023/04/10 18:06:53;;;;;;;1.40;1.30;;;14.80;1.00;;;;;;6200518;23;20025;-88
2023/04/10 18:09:54;;;;;;;1.55;1.45;;;14.70;1.00;;;;;;6215200;23;20055;-93
2023/04/10 18:13:19;;;;;;;;;;;;;;;;;;;;;
2023/04/10 18:17:00;;;;;;;1.40;1.30;;;14.70;1.00;;;;;;6228825;23;20032;-94
2023/04/10 18:24:00;;;;;;;1.25;1.15;;;14.60;1.00;;;;;;6166863;23;20032;-90
2023/04/10 18:26:48;;;;;;;4.45;1.70;;;14.50;1.00;;;;;;6221779;23;20027;-92
2023/04/10 18:29:35;;;;;;;2.75;1.40;;;14.40;1.00;;;;;;6202299;23;20029;-92
2023/04/10 18:32:23;;;;;;;1.92;1.60;;;14.40;1.00;;;;;;6224469;23;20025;-92
2023/04/10 18:35:15;;;;;;;1.75;1.60;;;14.30;1.00;;;;;;6224112;23;20024;-92
2023/04/10 18:38:02;;;;;;;2.28;1.90;;;14.20;1.00;;;;;;6224140;23;20440;-92
2023/04/10 18:40:56;;;;;;;2.08;1.65;;;14.10;1.00;;;;;;6223867;23;20080;-94
2023/04/10 18:43:44;;;;;;;2.38;1.73;;;14.00;1.00;;;;;;6228176;23;20097;-92
2023/04/10 18:46:51;;;;;;;3.92;2.30;;;13.90;1.00;;;;;;6230811;23;20025;-94
2023/04/10 18:49:51;;;;;;;2.97;2.50;;;13.90;1.00;;;;;;6224957;23;20067;-94
2023/04/10 18:52:46;;;;;;;4.32;3.10;;;13.80;1.00;;;;;;6226768;23;20258;-91
2023/04/10 18:55:34;;;;;;;3.95;3.53;;;13.90;1.00;;;;;;6206004;23;20036;-93
2023/04/10 18:58:31;;;;;;;5.55;4.05;;;13.70;1.00;;;;;;6211905;23;20029;-94
2023/04/10 19:01:25;;;;;;;4.03;3.15;;;13.70;1.00;;;;;;6214305;23;20028;-93
2023/04/10 19:05:18;;;;;;;;;;;;;;;;;;;;;
2023/04/10 19:08:44;;;;;;;;;;;;;;;;;;;;;
2023/04/10 19:12:09;;;;;;;4.60;3.10;;;13.60;1.00;;;;;;5976692;24;20130;-93
2023/04/10 19:14:59;;;;;;;5.55;3.30;;;13.60;1.00;;;;;;5993275;24;20032;-93
2023/04/10 19:17:51;;;;;;;4.30;2.65;;;13.50;1.00;;;;;;5988754;24;20065;-92
2023/04/10 19:20:39;;;;;;;3.42;2.60;;;13.50;1.00;;;;;;5989588;24;20051;-93
2023/04/10 19:23:39;;;;;;;3.50;2.70;;;13.50;1.00;;;;;;6007107;23;20037;-93
2023/04/10 19:26:29;;;;;;;3.58;2.80;;;13.50;1.00;;;;;;6084424;23;20082;-92
2023/04/10 19:29:19;;;;;;;3.70;2.90;;;13.40;1.00;;;;;;6107413;23;20432;-91
2023/04/10 19:32:39;;;;;;;4.00;2.60;;;13.40;1.00;;;;;;6102480;23;20030;-91
2023/04/10 19:35:42;;;;;;;3.38;2.72;;;13.30;1.00;;;;;;6226550;23;20024;-92
2023/04/10 19:42:51;;;;;;;7.15;3.53;;;13.30;1.00;;;;;;6199244;23;20021;-92
2023/04/10 19:45:58;;;;;;;3.30;3.00;;;13.20;1.00;;;;;;6225091;23;20608;-91
2023/04/10 19:53:11;;;;;;;;;;;;;;;;;;;;;
2023/04/10 19:59:37;;;;;;;3.10;2.78;;;13.30;1.00;;;;;;6222110;23;20079;-92
2023/04/10 20:02:49;;;;;;;4.28;2.63;;;13.30;1.00;;;;;;6227710;23;20391;-92
2023/04/10 20:10:03;;;;;;;2.80;2.50;;;13.30;1.00;;;;;;6166629;23;20026;-92
2023/04/10 20:13:16;;;;;;;4.13;2.60;;;13.40;1.00;;;;;;6170343;23;20043;-91
2023/04/10 20:16:09;;;;;;;6.22;2.42;;;13.40;1.00;;;;;;6147642;23;20096;-91
2023/04/10 20:19:37;;;;;;;4.75;2.85;;;13.40;1.00;;;;;;6143967;23;20033;-93
2023/04/10 20:22:43;;;;;;;;;;;;;;;;;;;;;
2023/04/10 20:26:00;;;;;;;2.55;2.35;;;13.40;1.00;;;;;;6077360;23;20102;-93
2023/04/10 20:28:56;;;;;;;3.35;2.90;;;13.30;1.00;;;;;;6070973;23;20031;-94
2023/04/10 20:32:08;;;;;;;4.38;3.10;;;13.30;1.00;;;;;;6073203;23;20035;-91
2023/04/10 20:34:58;;;;;;;4.30;3.38;;;13.30;1.00;;;;;;6080273;23;20027;-87
2023/04/10 20:37:46;;;;;;;6.45;2.60;;;13.20;1.00;;;;;;6085248;23;20031;-89
2023/04/10 20:40:34;;;;;;;3.40;2.55;;;13.20;1.00;;;;;;6097205;23;20095;-90
2023/04/10 20:43:26;;;;;;;3.58;2.78;;;13.20;1.00;;;;;;6168995;23;20025;-92
2023/04/10 20:46:13;;;;;;;3.28;2.63;;;13.20;1.00;;;;;;6210019;23;20020;-90